sensor_id;sensor_type;location;lat;lon;timestamp;temperature;humidity
13711;DHT22;6927;51.256;9.410;2023-04-15T00:00:09;6.30;1.00
13711;DHT22;6927;51.256;9.410;2023-04-15T00:02:35;6.30;1.20
13711;DHT22;6927;51.256;9.410;2023-04-15T00:05:01;6.30;1.90
13711;DHT22;6927;51.256;9.410;2023-04-15T00:07:27;6.30;49.30
13711;DHT22;6927;51.256;9.410;2023-04-15T00:09:54;6.30;95.10
13711;DHT22;6927;51.256;9.410;2023-04-15T00:12:22;6.30;99.90
13711;DHT22;6927;51.256;9.410;2023-04-15T00:14:48;6.30;99.90
13711;DHT22;6927;51.256;9.410;2023-04-15T00:17:14;6.30;95.50
13711;DHT22;6927;51.256;9.410;2023-04-15T00:19:40;6.40;75.10
13711;DHT22;6927;51.256;9.410;2023-04-15T00:22:06;6.40;40.90
13711;DHT22;6927;51.256;9.410;2023-04-15T00:24:32;6.40;11.80
13711;DHT22;6927;51.256;9.410;2023-04-15T00:26:58;6.40;1.00
13711;DHT22;6927;51.256;9.410;2023-04-15T00:29:24;6.40;1.00
13711;DHT22;6927;51.256;9.410;2023-04-15T00:31:50;6.40;1.00
13711;DHT22;6927;51.256;9.410;2023-04-15T00:34:16;6.30;1.90
13711;DHT22;6927;51.256;9.410;2023-04-15T00:36:42;6.30;49.20
13711;DHT22;6927;51.256;9.410;2023-04-15T00:39:08;6.20;90.60
13711;DHT22;6927;51.256;9.410;2023-04-15T00:41:33;6.20;97.50
13711;DHT22;6927;51.256;9.410;2023-04-15T00:44:00;6.10;99.90
13711;DHT22;6927;51.256;9.410;2023-04-15T00:46:27;6.10;99.90
13711;DHT22;6927;51.256;9.410;2023-04-15T00:48:54;6.10;99.90
13711;DHT22;6927;51.256;9.410;2023-04-15T00:51:19;6.10;99.90
13711;DHT22;6927;51.256;9.410;2023-04-15T00:53:45;6.00;99.90
13711;DHT22;6927;51.256;9.410;2023-04-15T00:56:11;6.00;99.90
13711;DHT22;6927;51.256;9.410;2023-04-15T00:58:37;6.00;99.90
13711;DHT22;6927;51.256;9.410;2023-04-15T01:01:03;5.90;99.90
13711;DHT22;6927;51.256;9.410;2023-04-15T01:03:29;5.90;99.90
13711;DHT22;6927;51.256;9.410;2023-04-15T01:05:55;5.90;99.90
13711;DHT22;6927;51.256;9.410;2023-04-15T01:08:31;5.90;99.90
13711;DHT22;6927;51.256;9.410;2023-04-15T01:11:00;5.90;99.90
13711;DHT22;6927;51.256;9.410;2023-04-15T01:13:28;5.90;99.90
13711;DHT22;6927;51.256;9.410;2023-04-15T01:15:55;5.80;99.90
13711;DHT22;6927;51.256;9.410;2023-04-15T01:18:22;5.80;99.90
13711;DHT22;6927;51.256;9.410;2023-04-15T01:20:48;5.80;99.90
13711;DHT22;6927;51.256;9.410;2023-04-15T01:23:14;5.80;99.90
13711;DHT22;6927;51.256;9.410;2023-04-15T01:25:40;5.80;99.90
13711;DHT22;6927;51.256;9.410;2023-04-15T01:28:06;5.80;99.90
13711;DHT22;6927;51.256;9.410;2023-04-15T01:30:34;5.80;99.90
13711;DHT22;6927;51.256;9.410;2023-04-15T01:32:59;5.80;99.90
13711;DHT22;6927;51.256;9.410;2023-04-15T01:35:25;5.80;99.90
13711;DHT22;6927;51.256;9.410;2023-04-15T01:37:52;5.80;99.90
13711;DHT22;6927;51.256;9.410;2023-04-15T01:40:18;5.80;99.90
13711;DHT22;6927;51.256;9.410;2023-04-15T01:42:45;5.80;99.90
13711;DHT22;6927;51.256;9.410;2023-04-15T01:45:11;5.80;99.90
13711;DHT22;6927;51.256;9.410;2023-04-15T01:47:37;5.80;99.90
13711;DHT22;6927;51.256;9.410;2023-04-15T01:50:03;5.80;99.90
13711;DHT22;6927;51.256;9.410;2023-04-15T01:52:29;5.80;99.90
13711;DHT22;6927;51.256;9.410;2023-04-15T01:54:54;5.80;99.90
13711;DHT22;6927;51.256;9.410;2023-04-15T01:57:20;5.70;99.90
13711;DHT22;6927;51.256;9.410;2023-04-15T01:59:46;5.70;99.90
13711;DHT22;6927;51.256;9.410;2023-04-15T02:02:11;5.70;99.90
13711;DHT22;6927;51.256;9.410;2023-04-15T02:04:37;5.70;99.90
13711;DHT22;6927;51.256;9.410;2023-04-15T02:07:03;5.70;99.90
13711;DHT22;6927;51.256;9.410;2023-04-15T02:09:28;5.70;99.90
13711;DHT22;6927;51.256;9.410;2023-04-15T02:11:55;5.70;99.90
13711;DHT22;6927;51.256;9.410;2023-04-15T02:14:21;5.70;99.90
13711;DHT22;6927;51.256;9.410;2023-04-15T02:16:46;5.70;99.90
13711;DHT22;6927;51.256;9.410;2023-04-15T02:19:12;5.60;99.90
13711;DHT22;6927;51.256;9.410;2023-04-15T02:21:38;5.60;99.90
13711;DHT22;6927;51.256;9.410;2023-04-15T02:24:04;5.60;99.90
13711;DHT22;6927;51.256;9.410;2023-04-15T02:26:30;5.60;99.90
13711;DHT22;6927;51.256;9.410;2023-04-15T02:28:58;5.60;99.90
13711;DHT22;6927;51.256;9.410;2023-04-15T02:31:24;5.60;99.90
13711;DHT22;6927;51.256;9.410;2023-04-15T02:33:50;5.60;99.90
13711;DHT22;6927;51.256;9.410;2023-04-15T02:36:16;5.60;99.90
13711;DHT22;6927;51.256;9.410;2023-04-15T02:38:41;5.60;99.90
13711;DHT22;6927;51.256;9.410;2023-04-15T02:41:10;5.60;99.90
13711;DHT22;6927;51.256;9.410;2023-04-15T02:43:36;5.50;99.90
13711;DHT22;6927;51.256;9.410;2023-04-15T02:46:02;5.50;99.90
13711;DHT22;6927;51.256;9.410;2023-04-15T02:48:28;5.50;99.90
13711;DHT22;6927;51.256;9.410;2023-04-15T02:51:12;5.50;99.90
13711;DHT22;6927;51.256;9.410;2023-04-15T02:53:38;5.50;99.90
13711;DHT22;6927;51.256;9.410;2023-04-15T02:56:04;5.50;99.90
13711;DHT22;6927;51.256;9.410;2023-04-15T02:58:30;5.50;99.90
13711;DHT22;6927;51.256;9.410;2023-04-15T03:00:56;5.50;99.90
13711;DHT22;6927;51.256;9.410;2023-04-15T03:03:21;5.50;99.90
13711;DHT22;6927;51.256;9.410;2023-04-15T03:05:47;5.50;99.90
13711;DHT22;6927;51.256;9.410;2023-04-15T03:08:13;5.40;99.90
13711;DHT22;6927;51.256;9.410;2023-04-15T03:10:39;5.40;99.90
13711;DHT22;6927;51.256;9.410;2023-04-15T03:13:04;5.40;99.90
13711;DHT22;6927;51.256;9.410;2023-04-15T03:15:31;5.40;99.90
13711;DHT22;6927;51.256;9.410;2023-04-15T03:17:57;5.40;99.90
13711;DHT22;6927;51.256;9.410;2023-04-15T03:20:23;5.40;99.90
13711;DHT22;6927;51.256;9.410;2023-04-15T03:22:48;5.40;99.90
13711;DHT22;6927;51.256;9.410;2023-04-15T03:25:14;5.40;99.90
13711;DHT22;6927;51.256;9.410;2023-04-15T03:27:40;5.30;99.90
13711;DHT22;6927;51.256;9.410;2023-04-15T03:30:06;5.30;99.90
13711;DHT22;6927;51.256;9.410;2023-04-15T03:32:33;5.30;99.90
13711;DHT22;6927;51.256;9.410;2023-04-15T03:34:58;5.40;99.90
13711;DHT22;6927;51.256;9.410;2023-04-15T03:37:24;5.40;99.90
13711;DHT22;6927;51.256;9.410;2023-04-15T03:39:49;5.50;99.90
13711;DHT22;6927;51.256;9.410;2023-04-15T03:42:15;5.50;99.90
13711;DHT22;6927;51.256;9.410;2023-04-15T03:44:41;5.50;99.90
13711;DHT22;6927;51.256;9.410;2023-04-15T03:47:07;5.50;99.90
13711;DHT22;6927;51.256;9.410;2023-04-15T03:49:32;5.50;99.90
13711;DHT22;6927;51.256;9.410;2023-04-15T03:51:58;5.40;99.90
13711;DHT22;6927;51.256;9.410;2023-04-15T03:54:24;5.40;99.90
13711;DHT22;6927;51.256;9.410;2023-04-15T03:56:49;5.30;99.90
13711;DHT22;6927;51.256;9.410;2023-04-15T03:59:15;5.30;99.90
13711;DHT22;6927;51.256;9.410;2023-04-15T04:01:41;5.20;99.90
13711;DHT22;6927;51.256;9.410;2023-04-15T04:04:06;5.20;99.90
13711;DHT22;6927;51.256;9.410;2023-04-15T04:06:32;5.10;99.90
13711;DHT22;6927;51.256;9.410;2023-04-15T04:08:58;5.10;99.90
13711;DHT22;6927;51.256;9.410;2023-04-15T04:11:23;5.10;99.90
13711;DHT22;6927;51.256;9.410;2023-04-15T04:13:49;5.00;99.90
13711;DHT22;6927;51.256;9.410;2023-04-15T04:16:15;5.00;99.90
13711;DHT22;6927;51.256;9.410;2023-04-15T04:18:40;5.00;99.90
13711;DHT22;6927;51.256;9.410;2023-04-15T04:21:06;4.90;99.90
13711;DHT22;6927;51.256;9.410;2023-04-15T04:23:32;5.00;99.90
13711;DHT22;6927;51.256;9.410;2023-04-15T04:25:57;5.00;99.90
13711;DHT22;6927;51.256;9.410;2023-04-15T04:28:23;5.00;99.90
13711;DHT22;6927;51.256;9.410;2023-04-15T04:30:48;5.00;99.90
13711;DHT22;6927;51.256;9.410;2023-04-15T04:33:14;5.00;99.90
13711;DHT22;6927;51.256;9.410;2023-04-15T04:35:40;5.00;99.90
13711;DHT22;6927;51.256;9.410;2023-04-15T04:38:05;5.00;99.90
13711;DHT22;6927;51.256;9.410;2023-04-15T04:40:31;5.10;99.90
13711;DHT22;6927;51.256;9.410;2023-04-15T04:42:57;5.10;99.90
13711;DHT22;6927;51.256;9.410;2023-04-15T04:45:22;5.20;99.90
13711;DHT22;6927;51.256;9.410;2023-04-15T04:47:48;5.20;99.90
13711;DHT22;6927;51.256;9.410;2023-04-15T04:50:13;5.30;99.90
13711;DHT22;6927;51.256;9.410;2023-04-15T04:52:39;5.30;99.90
13711;DHT22;6927;51.256;9.410;2023-04-15T04:55:05;5.40;99.90
13711;DHT22;6927;51.256;9.410;2023-04-15T04:57:30;5.40;99.90
13711;DHT22;6927;51.256;9.410;2023-04-15T04:59:56;5.50;99.90
13711;DHT22;6927;51.256;9.410;2023-04-15T05:02:22;5.50;99.90
13711;DHT22;6927;51.256;9.410;2023-04-15T05:04:47;5.60;99.90
13711;DHT22;6927;51.256;9.410;2023-04-15T05:07:14;5.70;99.90
13711;DHT22;6927;51.256;9.410;2023-04-15T05:09:40;5.70;99.90
13711;DHT22;6927;51.256;9.410;2023-04-15T05:12:07;5.70;99.90
13711;DHT22;6927;51.256;9.410;2023-04-15T05:14:33;5.80;99.90
13711;DHT22;6927;51.256;9.410;2023-04-15T05:16:59;5.80;99.90
13711;DHT22;6927;51.256;9.410;2023-04-15T05:19:24;5.90;99.90
13711;DHT22;6927;51.256;9.410;2023-04-15T05:21:50;5.90;99.90
13711;DHT22;6927;51.256;9.410;2023-04-15T05:24:15;5.90;99.90
13711;DHT22;6927;51.256;9.410;2023-04-15T05:26:41;6.00;99.90
13711;DHT22;6927;51.256;9.410;2023-04-15T05:29:07;6.10;99.90
13711;DHT22;6927;51.256;9.410;2023-04-15T05:31:32;6.20;99.90
13711;DHT22;6927;51.256;9.410;2023-04-15T05:33:58;6.30;99.90
13711;DHT22;6927;51.256;9.410;2023-04-15T05:36:23;6.50;99.90
13711;DHT22;6927;51.256;9.410;2023-04-15T05:38:49;6.70;99.90
13711;DHT22;6927;51.256;9.410;2023-04-15T05:41:14;6.80;99.90
13711;DHT22;6927;51.256;9.410;2023-04-15T05:43:40;7.00;99.90
13711;DHT22;6927;51.256;9.410;2023-04-15T05:46:06;7.10;99.90
13711;DHT22;6927;51.256;9.410;2023-04-15T05:48:32;7.10;99.90
13711;DHT22;6927;51.256;9.410;2023-04-15T05:50:59;7.30;99.90
13711;DHT22;6927;51.256;9.410;2023-04-15T05:53:24;7.30;99.90
13711;DHT22;6927;51.256;9.410;2023-04-15T05:55:50;7.30;99.90
13711;DHT22;6927;51.256;9.410;2023-04-15T05:58:15;7.40;99.90
13711;DHT22;6927;51.256;9.410;2023-04-15T06:00:41;7.50;99.90
13711;DHT22;6927;51.256;9.410;2023-04-15T06:03:07;7.50;99.90
13711;DHT22;6927;51.256;9.410;2023-04-15T06:05:32;7.50;99.90
13711;DHT22;6927;51.256;9.410;2023-04-15T06:07:58;7.50;99.90
13711;DHT22;6927;51.256;9.410;2023-04-15T06:10:24;7.50;99.90
13711;DHT22;6927;51.256;9.410;2023-04-15T06:12:51;7.50;99.90
13711;DHT22;6927;51.256;9.410;2023-04-15T06:15:17;7.60;99.90
13711;DHT22;6927;51.256;9.410;2023-04-15T06:17:43;7.80;99.90
13711;DHT22;6927;51.256;9.410;2023-04-15T06:20:08;7.80;99.90
13711;DHT22;6927;51.256;9.410;2023-04-15T06:22:36;7.80;88.00
13711;DHT22;6927;51.256;9.410;2023-04-15T06:25:02;7.80;3.10
13711;DHT22;6927;51.256;9.410;2023-04-15T06:27:27;7.80;1.00
13711;DHT22;6927;51.256;9.410;2023-04-15T06:29:53;7.80;53.70
13711;DHT22;6927;51.256;9.410;2023-04-15T06:32:19;7.90;1.00
13711;DHT22;6927;51.256;9.410;2023-04-15T06:34:44;7.80;59.30
13711;DHT22;6927;51.256;9.410;2023-04-15T06:37:10;7.80;87.80
13711;DHT22;6927;51.256;9.410;2023-04-15T06:39:40;7.80;99.90
13711;DHT22;6927;51.256;9.410;2023-04-15T06:42:06;7.80;99.90
13711;DHT22;6927;51.256;9.410;2023-04-15T06:44:32;7.80;99.90
13711;DHT22;6927;51.256;9.410;2023-04-15T06:46:57;7.70;99.90
13711;DHT22;6927;51.256;9.410;2023-04-15T06:49:23;7.60;99.90
13711;DHT22;6927;51.256;9.410;2023-04-15T06:51:48;7.60;99.90
13711;DHT22;6927;51.256;9.410;2023-04-15T06:54:15;7.50;99.90
13711;DHT22;6927;51.256;9.410;2023-04-15T06:56:41;7.50;99.90
13711;DHT22;6927;51.256;9.410;2023-04-15T06:59:07;7.50;99.90
13711;DHT22;6927;51.256;9.410;2023-04-15T07:01:33;7.50;99.90
13711;DHT22;6927;51.256;9.410;2023-04-15T07:03:58;7.40;99.90
13711;DHT22;6927;51.256;9.410;2023-04-15T07:06:24;7.40;99.90
13711;DHT22;6927;51.256;9.410;2023-04-15T07:08:50;7.40;99.90
13711;DHT22;6927;51.256;9.410;2023-04-15T07:11:15;7.30;99.90
13711;DHT22;6927;51.256;9.410;2023-04-15T07:13:41;7.40;99.90
13711;DHT22;6927;51.256;9.410;2023-04-15T07:16:07;7.30;99.90
13711;DHT22;6927;51.256;9.410;2023-04-15T07:18:33;7.30;99.90
13711;DHT22;6927;51.256;9.410;2023-04-15T07:20:58;7.30;99.90
13711;DHT22;6927;51.256;9.410;2023-04-15T07:23:24;7.30;99.90
13711;DHT22;6927;51.256;9.410;2023-04-15T07:25:49;7.30;99.90
13711;DHT22;6927;51.256;9.410;2023-04-15T07:28:16;7.40;99.90
13711;DHT22;6927;51.256;9.410;2023-04-15T07:30:42;7.40;99.90
13711;DHT22;6927;51.256;9.410;2023-04-15T07:33:07;7.40;99.90
13711;DHT22;6927;51.256;9.410;2023-04-15T07:35:33;7.40;99.90
13711;DHT22;6927;51.256;9.410;2023-04-15T07:37:58;7.40;99.90
13711;DHT22;6927;51.256;9.410;2023-04-15T07:40:24;7.40;99.90
13711;DHT22;6927;51.256;9.410;2023-04-15T07:42:49;7.40;99.90
13711;DHT22;6927;51.256;9.410;2023-04-15T07:45:15;7.30;99.90
13711;DHT22;6927;51.256;9.410;2023-04-15T07:47:41;7.30;99.90
13711;DHT22;6927;51.256;9.410;2023-04-15T07:50:08;7.20;99.90
13711;DHT22;6927;51.256;9.410;2023-04-15T07:52:35;7.30;99.90
13711;DHT22;6927;51.256;9.410;2023-04-15T07:55:06;7.40;99.90
13711;DHT22;6927;51.256;9.410;2023-04-15T07:57:35;7.40;99.90
13711;DHT22;6927;51.256;9.410;2023-04-15T08:00:02;7.40;99.90
13711;DHT22;6927;51.256;9.410;2023-04-15T08:02:30;7.40;99.90
13711;DHT22;6927;51.256;9.410;2023-04-15T08:04:56;7.50;99.90
13711;DHT22;6927;51.256;9.410;2023-04-15T08:07:22;7.50;99.90
13711;DHT22;6927;51.256;9.410;2023-04-15T08:09:47;7.50;99.90
13711;DHT22;6927;51.256;9.410;2023-04-15T08:12:13;7.50;99.90
13711;DHT22;6927;51.256;9.410;2023-04-15T08:14:39;7.50;99.90
13711;DHT22;6927;51.256;9.410;2023-04-15T08:17:05;7.50;99.90
13711;DHT22;6927;51.256;9.410;2023-04-15T08:19:31;7.50;99.90
13711;DHT22;6927;51.256;9.410;2023-04-15T08:21:57;7.60;99.90
13711;DHT22;6927;51.256;9.410;2023-04-15T08:24:23;7.60;99.90
13711;DHT22;6927;51.256;9.410;2023-04-15T08:26:53;7.70;99.90
13711;DHT22;6927;51.256;9.410;2023-04-15T08:29:18;7.60;99.90
13711;DHT22;6927;51.256;9.410;2023-04-15T08:31:44;7.70;99.90
13711;DHT22;6927;51.256;9.410;2023-04-15T08:34:18;7.60;99.90
13711;DHT22;6927;51.256;9.410;2023-04-15T08:36:44;7.60;99.90
13711;DHT22;6927;51.256;9.410;2023-04-15T08:39:18;7.60;99.90
13711;DHT22;6927;51.256;9.410;2023-04-15T08:41:59;7.60;99.90
13711;DHT22;6927;51.256;9.410;2023-04-15T08:44:28;7.60;99.90
13711;DHT22;6927;51.256;9.410;2023-04-15T08:46:54;7.60;99.90
13711;DHT22;6927;51.256;9.410;2023-04-15T08:49:21;7.70;99.90
13711;DHT22;6927;51.256;9.410;2023-04-15T08:51:49;7.70;99.90
13711;DHT22;6927;51.256;9.410;2023-04-15T08:54:14;7.70;99.90
13711;DHT22;6927;51.256;9.410;2023-04-15T08:56:41;7.70;99.90
13711;DHT22;6927;51.256;9.410;2023-04-15T08:59:06;7.80;99.90
13711;DHT22;6927;51.256;9.410;2023-04-15T09:01:33;7.80;99.90
13711;DHT22;6927;51.256;9.410;2023-04-15T09:03:59;7.80;99.90
13711;DHT22;6927;51.256;9.410;2023-04-15T09:06:27;7.90;99.90
13711;DHT22;6927;51.256;9.410;2023-04-15T09:08:52;7.90;99.90
13711;DHT22;6927;51.256;9.410;2023-04-15T09:11:18;7.90;99.90
13711;DHT22;6927;51.256;9.410;2023-04-15T09:13:44;8.00;99.90
13711;DHT22;6927;51.256;9.410;2023-04-15T09:16:10;7.90;99.90
13711;DHT22;6927;51.256;9.410;2023-04-15T09:18:37;8.00;99.90
13711;DHT22;6927;51.256;9.410;2023-04-15T09:21:11;8.00;99.90
13711;DHT22;6927;51.256;9.410;2023-04-15T09:23:39;8.00;99.90
13711;DHT22;6927;51.256;9.410;2023-04-15T09:26:05;8.10;99.90
13711;DHT22;6927;51.256;9.410;2023-04-15T09:28:31;8.00;99.90
13711;DHT22;6927;51.256;9.410;2023-04-15T09:30:58;8.00;99.90
13711;DHT22;6927;51.256;9.410;2023-04-15T09:33:24;8.00;99.90
13711;DHT22;6927;51.256;9.410;2023-04-15T09:36:02;8.00;99.90
13711;DHT22;6927;51.256;9.410;2023-04-15T09:38:29;8.00;99.90
13711;DHT22;6927;51.256;9.410;2023-04-15T09:40:56;8.00;99.90
13711;DHT22;6927;51.256;9.410;2023-04-15T09:43:22;7.90;99.90
13711;DHT22;6927;51.256;9.410;2023-04-15T09:45:53;7.90;99.90
13711;DHT22;6927;51.256;9.410;2023-04-15T09:48:23;7.90;99.90
13711;DHT22;6927;51.256;9.410;2023-04-15T09:50:51;7.80;99.90
13711;DHT22;6927;51.256;9.410;2023-04-15T09:53:22;7.80;99.90
13711;DHT22;6927;51.256;9.410;2023-04-15T09:55:53;7.80;99.90
13711;DHT22;6927;51.256;9.410;2023-04-15T09:58:24;7.80;99.90
13711;DHT22;6927;51.256;9.410;2023-04-15T10:00:51;7.90;99.90
13711;DHT22;6927;51.256;9.410;2023-04-15T10:03:25;7.90;99.90
13711;DHT22;6927;51.256;9.410;2023-04-15T10:05:53;7.80;99.90
13711;DHT22;6927;51.256;9.410;2023-04-15T10:08:21;7.80;99.90
13711;DHT22;6927;51.256;9.410;2023-04-15T10:10:48;7.70;99.90
13711;DHT22;6927;51.256;9.410;2023-04-15T10:13:17;7.70;99.90
13711;DHT22;6927;51.256;9.410;2023-04-15T10:15:44;7.70;99.90
13711;DHT22;6927;51.256;9.410;2023-04-15T10:18:15;7.70;99.90
13711;DHT22;6927;51.256;9.410;2023-04-15T10:20:43;7.70;99.90
13711;DHT22;6927;51.256;9.410;2023-04-15T10:23:11;7.70;99.90
13711;DHT22;6927;51.256;9.410;2023-04-15T10:25:36;7.70;99.90
13711;DHT22;6927;51.256;9.410;2023-04-15T10:28:05;7.70;99.90
13711;DHT22;6927;51.256;9.410;2023-04-15T10:30:32;7.70;99.90
13711;DHT22;6927;51.256;9.410;2023-04-15T10:32:59;7.70;99.90
13711;DHT22;6927;51.256;9.410;2023-04-15T10:35:25;7.70;99.90
13711;DHT22;6927;51.256;9.410;2023-04-15T10:37:50;7.70;99.90
13711;DHT22;6927;51.256;9.410;2023-04-15T10:40:29;7.70;99.90
13711;DHT22;6927;51.256;9.410;2023-04-15T10:42:58;7.60;99.90
13711;DHT22;6927;51.256;9.410;2023-04-15T10:45:36;7.60;99.90
13711;DHT22;6927;51.256;9.410;2023-04-15T10:48:05;7.50;99.90
13711;DHT22;6927;51.256;9.410;2023-04-15T10:50:31;7.50;99.90
13711;DHT22;6927;51.256;9.410;2023-04-15T10:53:02;7.50;99.90
13711;DHT22;6927;51.256;9.410;2023-04-15T10:55:35;7.50;99.90
13711;DHT22;6927;51.256;9.410;2023-04-15T10:58:01;7.60;99.90
13711;DHT22;6927;51.256;9.410;2023-04-15T11:00:29;7.60;99.90
13711;DHT22;6927;51.256;9.410;2023-04-15T11:03:07;7.60;99.90
13711;DHT22;6927;51.256;9.410;2023-04-15T11:05:48;7.60;99.90
13711;DHT22;6927;51.256;9.410;2023-04-15T11:08:14;7.60;99.90
13711;DHT22;6927;51.256;9.410;2023-04-15T11:15:45;7.80;99.90
13711;DHT22;6927;51.256;9.410;2023-04-15T11:18:16;7.70;99.90
13711;DHT22;6927;51.256;9.410;2023-04-15T11:21:02;7.80;99.90
13711;DHT22;6927;51.256;9.410;2023-04-15T11:26:00;7.80;99.90
13711;DHT22;6927;51.256;9.410;2023-04-15T11:28:28;7.80;99.90
13711;DHT22;6927;51.256;9.410;2023-04-15T11:30:54;7.80;99.90
13711;DHT22;6927;51.256;9.410;2023-04-15T11:33:20;7.90;99.90
13711;DHT22;6927;51.256;9.410;2023-04-15T11:35:47;7.80;99.90
13711;DHT22;6927;51.256;9.410;2023-04-15T11:38:13;7.90;99.90
13711;DHT22;6927;51.256;9.410;2023-04-15T11:40:40;7.90;99.90
13711;DHT22;6927;51.256;9.410;2023-04-15T11:43:09;7.90;99.90
13711;DHT22;6927;51.256;9.410;2023-04-15T11:45:56;7.80;99.90
13711;DHT22;6927;51.256;9.410;2023-04-15T11:48:24;7.80;99.90
13711;DHT22;6927;51.256;9.410;2023-04-15T11:50:59;7.80;99.90
13711;DHT22;6927;51.256;9.410;2023-04-15T11:53:36;7.80;99.90
13711;DHT22;6927;51.256;9.410;2023-04-15T11:56:02;7.80;99.90
13711;DHT22;6927;51.256;9.410;2023-04-15T11:58:28;7.80;99.90
13711;DHT22;6927;51.256;9.410;2023-04-15T12:00:56;7.90;99.90
13711;DHT22;6927;51.256;9.410;2023-04-15T12:03:30;7.90;99.90
13711;DHT22;6927;51.256;9.410;2023-04-15T12:06:18;7.90;99.90
13711;DHT22;6927;51.256;9.410;2023-04-15T12:09:10;7.90;99.90
13711;DHT22;6927;51.256;9.410;2023-04-15T12:11:44;7.90;99.90
13711;DHT22;6927;51.256;9.410;2023-04-15T12:14:12;7.90;99.90
13711;DHT22;6927;51.256;9.410;2023-04-15T12:16:45;7.90;99.90
13711;DHT22;6927;51.256;9.410;2023-04-15T12:19:13;7.80;99.90
13711;DHT22;6927;51.256;9.410;2023-04-15T12:21:43;7.80;99.90
13711;DHT22;6927;51.256;9.410;2023-04-15T12:24:10;7.80;99.90
13711;DHT22;6927;51.256;9.410;2023-04-15T12:26:47;7.80;99.90
13711;DHT22;6927;51.256;9.410;2023-04-15T12:29:14;7.80;99.90
13711;DHT22;6927;51.256;9.410;2023-04-15T12:31:52;7.80;99.90
13711;DHT22;6927;51.256;9.410;2023-04-15T12:34:28;7.80;99.90
13711;DHT22;6927;51.256;9.410;2023-04-15T12:36:55;7.90;99.90
13711;DHT22;6927;51.256;9.410;2023-04-15T12:39:23;7.90;99.90
13711;DHT22;6927;51.256;9.410;2023-04-15T12:41:49;7.90;99.90
13711;DHT22;6927;51.256;9.410;2023-04-15T12:44:15;7.90;99.90
13711;DHT22;6927;51.256;9.410;2023-04-15T12:46:41;7.90;99.90
13711;DHT22;6927;51.256;9.410;2023-04-15T12:49:07;7.90;99.90
13711;DHT22;6927;51.256;9.410;2023-04-15T12:51:33;7.90;99.90
13711;DHT22;6927;51.256;9.410;2023-04-15T12:53:59;8.00;99.90
13711;DHT22;6927;51.256;9.410;2023-04-15T12:56:25;8.00;99.90
13711;DHT22;6927;51.256;9.410;2023-04-15T12:58:51;8.00;99.90
13711;DHT22;6927;51.256;9.410;2023-04-15T13:01:17;8.00;99.90
13711;DHT22;6927;51.256;9.410;2023-04-15T13:03:43;8.00;99.90
13711;DHT22;6927;51.256;9.410;2023-04-15T13:06:08;8.00;99.90
13711;DHT22;6927;51.256;9.410;2023-04-15T13:08:34;8.00;99.90
13711;DHT22;6927;51.256;9.410;2023-04-15T13:11:00;8.00;99.90
13711;DHT22;6927;51.256;9.410;2023-04-15T13:13:25;8.00;99.90
13711;DHT22;6927;51.256;9.410;2023-04-15T13:15:52;7.90;99.90
13711;DHT22;6927;51.256;9.410;2023-04-15T13:18:17;7.90;99.90
13711;DHT22;6927;51.256;9.410;2023-04-15T13:20:43;7.90;99.90
13711;DHT22;6927;51.256;9.410;2023-04-15T13:23:08;7.90;99.90
13711;DHT22;6927;51.256;9.410;2023-04-15T13:25:35;7.90;99.90
13711;DHT22;6927;51.256;9.410;2023-04-15T13:28:01;7.90;99.90
13711;DHT22;6927;51.256;9.410;2023-04-15T13:30:27;7.90;99.90
13711;DHT22;6927;51.256;9.410;2023-04-15T13:32:53;7.90;99.90
13711;DHT22;6927;51.256;9.410;2023-04-15T13:35:19;7.90;99.90
13711;DHT22;6927;51.256;9.410;2023-04-15T13:37:46;7.90;99.90
13711;DHT22;6927;51.256;9.410;2023-04-15T13:40:11;7.90;99.90
13711;DHT22;6927;51.256;9.410;2023-04-15T13:42:37;7.90;99.90
13711;DHT22;6927;51.256;9.410;2023-04-15T13:45:03;7.90;99.90
13711;DHT22;6927;51.256;9.410;2023-04-15T13:47:28;7.90;99.90
13711;DHT22;6927;51.256;9.410;2023-04-15T13:49:54;7.90;99.90
13711;DHT22;6927;51.256;9.410;2023-04-15T13:52:21;7.90;99.90
13711;DHT22;6927;51.256;9.410;2023-04-15T13:54:47;8.00;99.90
13711;DHT22;6927;51.256;9.410;2023-04-15T13:57:13;8.00;99.90
13711;DHT22;6927;51.256;9.410;2023-04-15T13:59:38;8.10;99.90
13711;DHT22;6927;51.256;9.410;2023-04-15T14:02:04;8.10;99.90
13711;DHT22;6927;51.256;9.410;2023-04-15T14:04:30;8.20;99.90
13711;DHT22;6927;51.256;9.410;2023-04-15T14:06:56;8.20;99.90
13711;DHT22;6927;51.256;9.410;2023-04-15T14:09:22;8.30;99.90
13711;DHT22;6927;51.256;9.410;2023-04-15T14:11:49;8.30;99.90
13711;DHT22;6927;51.256;9.410;2023-04-15T14:14:14;8.30;99.90
13711;DHT22;6927;51.256;9.410;2023-04-15T14:16:40;8.30;99.90
13711;DHT22;6927;51.256;9.410;2023-04-15T14:19:06;8.30;99.90
13711;DHT22;6927;51.256;9.410;2023-04-15T14:21:31;8.30;99.90
13711;DHT22;6927;51.256;9.410;2023-04-15T14:23:58;8.30;99.90
13711;DHT22;6927;51.256;9.410;2023-04-15T14:26:23;8.30;99.90
13711;DHT22;6927;51.256;9.410;2023-04-15T14:28:50;8.20;99.90
13711;DHT22;6927;51.256;9.410;2023-04-15T14:31:17;8.30;99.90
13711;DHT22;6927;51.256;9.410;2023-04-15T14:33:42;8.30;99.90
13711;DHT22;6927;51.256;9.410;2023-04-15T14:36:08;8.30;99.90
13711;DHT22;6927;51.256;9.410;2023-04-15T14:38:34;8.30;99.90
13711;DHT22;6927;51.256;9.410;2023-04-15T14:41:05;8.20;99.90
13711;DHT22;6927;51.256;9.410;2023-04-15T14:43:30;8.20;99.90
13711;DHT22;6927;51.256;9.410;2023-04-15T14:45:56;8.20;99.90
13711;DHT22;6927;51.256;9.410;2023-04-15T14:48:22;8.30;99.90
13711;DHT22;6927;51.256;9.410;2023-04-15T14:50:47;8.40;99.90
13711;DHT22;6927;51.256;9.410;2023-04-15T14:53:13;8.30;99.90
13711;DHT22;6927;51.256;9.410;2023-04-15T14:55:38;8.30;99.90
13711;DHT22;6927;51.256;9.410;2023-04-15T14:58:05;8.30;99.90
13711;DHT22;6927;51.256;9.410;2023-04-15T15:00:32;8.30;99.90
13711;DHT22;6927;51.256;9.410;2023-04-15T15:02:58;8.30;99.90
13711;DHT22;6927;51.256;9.410;2023-04-15T15:05:23;8.20;99.90
13711;DHT22;6927;51.256;9.410;2023-04-15T15:07:49;8.20;99.90
13711;DHT22;6927;51.256;9.410;2023-04-15T15:10:15;8.20;99.90
13711;DHT22;6927;51.256;9.410;2023-04-15T15:12:41;8.20;99.90
13711;DHT22;6927;51.256;9.410;2023-04-15T15:15:06;8.20;99.90
13711;DHT22;6927;51.256;9.410;2023-04-15T15:17:33;8.20;99.90
13711;DHT22;6927;51.256;9.410;2023-04-15T15:19:59;8.30;99.90
13711;DHT22;6927;51.256;9.410;2023-04-15T15:22:24;8.30;99.90
13711;DHT22;6927;51.256;9.410;2023-04-15T15:24:50;8.40;99.90
13711;DHT22;6927;51.256;9.410;2023-04-15T15:27:16;8.40;99.90
13711;DHT22;6927;51.256;9.410;2023-04-15T15:29:41;8.40;99.90
13711;DHT22;6927;51.256;9.410;2023-04-15T15:32:07;8.50;99.90
13711;DHT22;6927;51.256;9.410;2023-04-15T15:34:33;8.60;99.90
13711;DHT22;6927;51.256;9.410;2023-04-15T15:36:59;8.60;99.90
13711;DHT22;6927;51.256;9.410;2023-04-15T15:39:25;8.70;99.90
13711;DHT22;6927;51.256;9.410;2023-04-15T15:41:51;8.70;99.90
13711;DHT22;6927;51.256;9.410;2023-04-15T15:44:16;8.80;99.90
13711;DHT22;6927;51.256;9.410;2023-04-15T15:46:42;8.80;99.90
13711;DHT22;6927;51.256;9.410;2023-04-15T15:49:07;8.70;99.90
13711;DHT22;6927;51.256;9.410;2023-04-15T15:51:33;8.70;99.90
13711;DHT22;6927;51.256;9.410;2023-04-15T15:53:59;8.70;99.90
13711;DHT22;6927;51.256;9.410;2023-04-15T15:56:25;8.80;99.90
13711;DHT22;6927;51.256;9.410;2023-04-15T15:58:51;8.80;99.90
13711;DHT22;6927;51.256;9.410;2023-04-15T16:01:16;8.80;99.90
13711;DHT22;6927;51.256;9.410;2023-04-15T16:03:42;8.80;99.90
13711;DHT22;6927;51.256;9.410;2023-04-15T16:06:08;8.80;99.90